Time;durP1;ratioP1;P1;durP2;ratioP2;P2;SDS_P1;SDS_P2;PMS_P1;PMS_P2;Temp;Humidity;BMP_temperature;BMP_pressure;BME280_temperature;BME280_humidity;BME280_pressure;Samples;Min_cycle;Max_cycle;Signal;HPM_P1;HPM_P2
2021/11/17 02:26:28;;;;;;;0.75;0.25;;;;;;;;;;5054840;28;20040;-70
2021/11/17 02:29:12;;;;;;;1.38;0.40;;;;;;;;;;5055188;28;20017;-70
2021/11/17 02:31:42;;;;;;;0.75;0.28;;;;;;;;;;5055074;28;20033;-69
2021/11/17 02:34:26;;;;;;;1.05;0.30;;;;;;;;;;5054694;28;20028;-71
2021/11/17 02:37:03;;;;;;;2.60;0.35;;;;;;;;;;5054497;28;20025;-68
2021/11/17 02:39:34;;;;;;;2.30;0.40;;;;;;;;;;5054813;28;20028;-70
2021/11/17 02:42:19;;;;;;;0.88;0.30;;;;;;;;;;5054720;28;20009;-69
2021/11/17 02:44:53;;;;;;;0.45;0.20;;;;;;;;;;5054769;28;20032;-69
2021/11/17 02:47:34;;;;;;;2.45;0.52;;;;;;;;;;5054599;28;20070;-70
2021/11/17 02:50:01;;;;;;;0.95;0.10;;;;;;;;;;5054323;28;20094;-69
2021/11/17 02:52:26;;;;;;;1.05;0.30;;;;;;;;;;5054643;28;20377;-70
2021/11/17 02:55:07;;;;;;;2.37;0.43;;;;;;;;;;5054387;28;20029;-69
2021/11/17 02:57:32;;;;;;;0.20;0.10;;;;;;;;;;5054756;28;20331;-71
2021/11/17 03:00:00;;;;;;;1.60;0.20;;;;;;;;;;5054601;28;20041;-69
2021/11/17 03:02:25;;;;;;;1.05;0.20;;;;;;;;;;5054292;28;20064;-70
2021/11/17 03:05:09;;;;;;;1.70;0.73;;;;;;;;;;5054324;28;20029;-69
2021/11/17 03:07:37;;;;;;;1.55;0.28;;;;;;;;;;5054269;28;20029;-70
2021/11/17 03:10:02;;;;;;;1.65;0.40;;;;;;;;;;5053053;28;20017;-69
2021/11/17 03:12:37;;;;;;;0.60;0.37;;;;;;;;;;5054265;28;20337;-71
2021/11/17 03:15:10;;;;;;;1.27;0.20;;;;;;;;;;5053816;28;20293;-68
2021/11/17 03:17:42;;;;;;;2.42;0.47;;;;;;;;;;5053145;28;20020;-70
2021/11/17 03:20:22;;;;;;;1.05;0.28;;;;;;;;;;5053897;28;20024;-70
2021/11/17 03:22:59;;;;;;;1.20;0.40;;;;;;;;;;5054189;28;20052;-70
2021/11/17 03:25:42;;;;;;;2.67;0.77;;;;;;;;;;5054105;28;20029;-70
2021/11/17 03:28:11;;;;;;;0.85;0.30;;;;;;;;;;5052725;28;20100;-69
2021/11/17 03:30:40;;;;;;;1.02;0.25;;;;;;;;;;5054044;28;20021;-71
2021/11/17 03:33:18;;;;;;;0.70;0.28;;;;;;;;;;5053502;28;20021;-69
2021/11/17 03:35:53;;;;;;;2.05;0.25;;;;;;;;;;5053926;28;20017;-70
2021/11/17 03:38:24;;;;;;;0.45;0.10;;;;;;;;;;5053613;28;20060;-70
2021/11/17 03:41:18;;;;;;;1.45;0.20;;;;;;;;;;5053563;28;20024;-68
2021/11/17 03:44:07;;;;;;;1.73;0.30;;;;;;;;;;5053566;28;20017;-70
2021/11/17 03:46:42;;;;;;;0.75;0.17;;;;;;;;;;5053624;28;20471;-71
2021/11/17 03:49:07;;;;;;;;;;;;;;;;;;5053252;28;20051;-70
2021/11/17 03:51:48;;;;;;;0.20;0.10;;;;;;;;;;5053359;28;19904;-70
2021/11/17 03:54:13;;;;;;;1.98;0.20;;;;;;;;;;5053510;28;20281;-69
2021/11/17 03:56:41;;;;;;;0.25;0.10;;;;;;;;;;5053711;28;20020;-71
2021/11/17 03:59:25;;;;;;;1.10;0.20;;;;;;;;;;5053493;28;20039;-69
2021/11/17 04:01:53;;;;;;;1.15;0.30;;;;;;;;;;5052050;28;20447;-71
2021/11/17 04:04:21;;;;;;;1.27;0.20;;;;;;;;;;5053363;28;20029;-69
2021/11/17 04:07:05;;;;;;;1.05;0.25;;;;;;;;;;5053310;28;20033;-70
2021/11/17 04:09:56;;;;;;;2.50;0.30;;;;;;;;;;5053215;28;20013;-70
2021/11/17 04:12:56;;;;;;;0.30;0.10;;;;;;;;;;5053129;28;20464;-69
2021/11/17 04:15:30;;;;;;;1.33;0.13;;;;;;;;;;4972157;28;20073;-69
2021/11/17 04:18:16;;;;;;;3.25;0.20;;;;;;;;;;4972351;28;20062;-70
2021/11/17 04:20:54;;;;;;;3.05;0.57;;;;;;;;;;4956469;28;20030;-68
2021/11/17 04:23:20;;;;;;;0.20;0.15;;;;;;;;;;4972489;28;20037;-71
2021/11/17 04:25:46;;;;;;;1.97;0.50;;;;;;;;;;4972262;28;20656;-69
2021/11/17 04:28:24;;;;;;;0.95;0.20;;;;;;;;;;4972297;28;20862;-71
2021/11/17 04:31:16;;;;;;;0.88;0.40;;;;;;;;;;4972334;28;20035;-70
2021/11/17 04:33:47;;;;;;;1.45;0.40;;;;;;;;;;4933721;29;20086;-69
2021/11/17 04:36:31;;;;;;;0.63;0.10;;;;;;;;;;4933622;29;20075;-71
2021/11/17 04:38:57;;;;;;;0.60;0.10;;;;;;;;;;4933386;29;20032;-69
2021/11/17 04:41:35;;;;;;;1.35;0.17;;;;;;;;;;4933743;29;20024;-71
2021/11/17 04:44:09;;;;;;;0.98;0.10;;;;;;;;;;4917753;29;20106;-69
2021/11/17 04:46:34;;;;;;;;;;;;;;;;;;4934200;29;20491;-71
2021/11/17 04:49:03;;;;;;;1.00;0.40;;;;;;;;;;4954583;28;19953;-69
2021/11/17 04:51:47;;;;;;;1.42;0.15;;;;;;;;;;4991600;28;20556;-70
2021/11/17 04:54:18;;;;;;;1.20;0.30;;;;;;;;;;4991190;28;20084;-70
2021/11/17 04:56:55;;;;;;;1.48;0.40;;;;;;;;;;4991750;28;20030;-68
2021/11/17 04:59:27;;;;;;;1.63;0.32;;;;;;;;;;4992383;28;20092;-70
2021/11/17 05:01:57;;;;;;;1.77;0.22;;;;;;;;;;4994785;28;20043;-69
2021/11/17 05:04:26;;;;;;;2.08;0.10;;;;;;;;;;4995089;28;20074;-71
2021/11/17 05:06:51;;;;;;;0.50;0.30;;;;;;;;;;4994816;28;20038;-69
2021/11/17 05:09:31;;;;;;;1.65;0.30;;;;;;;;;;4995027;28;20037;-70
2021/11/17 05:12:05;;;;;;;0.50;0.15;;;;;;;;;;5036523;28;20029;-69
2021/11/17 05:14:31;;;;;;;;;;;;;;;;;;5036862;28;20460;-70
2021/11/17 05:17:22;;;;;;;1.38;0.20;;;;;;;;;;5036370;28;19920;-68
2021/11/17 05:19:54;;;;;;;1.40;0.30;;;;;;;;;;4994886;28;20037;-69
2021/11/17 05:22:43;;;;;;;2.80;0.50;;;;;;;;;;4994668;28;20480;-69
2021/11/17 05:25:29;;;;;;;0.80;0.30;;;;;;;;;;4994918;28;20429;-69
2021/11/17 05:28:04;;;;;;;0.08;0.08;;;;;;;;;;4974969;28;20042;-69
2021/11/17 05:30:43;;;;;;;0.88;0.15;;;;;;;;;;4975093;28;20031;-70
2021/11/17 05:33:17;;;;;;;1.25;0.30;;;;;;;;;;4975119;28;20046;-68
2021/11/17 05:36:00;;;;;;;2.33;0.45;;;;;;;;;;4975192;28;20065;-70
2021/11/17 05:38:34;;;;;;;0.20;0.10;;;;;;;;;;4974948;28;20474;-69
2021/11/17 05:41:08;;;;;;;1.98;0.40;;;;;;;;;;4974760;28;20763;-70
2021/11/17 05:43:33;;;;;;;;;;;;;;;;;;4975469;28;20360;-69
2021/11/17 05:46:12;;;;;;;0.85;0.40;;;;;;;;;;4974696;28;19913;-68
2021/11/17 05:48:53;;;;;;;1.02;0.20;;;;;;;;;;4975201;28;20450;-70
2021/11/17 05:51:32;;;;;;;0.63;0.20;;;;;;;;;;4974665;28;20076;-68
2021/11/17 05:53:57;;;;;;;0.95;0.13;;;;;;;;;;4974561;28;20037;-71
2021/11/17 05:56:43;;;;;;;1.85;0.30;;;;;;;;;;4990900;28;20109;-69
2021/11/17 05:59:14;;;;;;;2.40;0.30;;;;;;;;;;5013585;28;20034;-70
2021/11/17 06:01:58;;;;;;;1.05;0.20;;;;;;;;;;5013368;28;20026;-69
2021/11/17 06:04:23;;;;;;;0.70;0.20;;;;;;;;;;5024005;28;20494;-69
2021/11/17 06:06:48;;;;;;;2.72;0.28;;;;;;;;;;5055261;28;20446;-69
2021/11/17 06:09:13;;;;;;;2.47;0.30;;;;;;;;;;5055163;28;20095;-70
2021/11/17 06:11:51;;;;;;;1.25;0.28;;;;;;;;;;5054704;28;20299;-68
2021/11/17 06:14:29;;;;;;;1.85;0.30;;;;;;;;;;5055039;28;20032;-69
2021/11/17 06:16:56;;;;;;;3.15;0.30;;;;;;;;;;5055179;28;20059;-69
2021/11/17 06:19:23;;;;;;;0.30;0.22;;;;;;;;;;5055067;28;20024;-69
2021/11/17 06:21:49;;;;;;;0.80;0.17;;;;;;;;;;5055194;28;20067;-70
2021/11/17 06:24:16;;;;;;;2.08;0.40;;;;;;;;;;5055206;28;20660;-69
2021/11/17 06:26:42;;;;;;;3.17;0.52;;;;;;;;;;5054872;28;20025;-70
2021/11/17 06:29:12;;;;;;;1.15;0.28;;;;;;;;;;5054870;28;20040;-69
2021/11/17 06:31:39;;;;;;;1.20;0.20;;;;;;;;;;5055183;28;20468;-69
2021/11/17 06:34:24;;;;;;;1.50;0.10;;;;;;;;;;5054488;28;20032;-69
2021/11/17 06:36:49;;;;;;;2.78;0.38;;;;;;;;;;5054904;28;20025;-68
2021/11/17 06:39:14;;;;;;;1.90;0.50;;;;;;;;;;5054801;28;20021;-71
2021/11/17 06:41:49;;;;;;;0.88;0.22;;;;;;;;;;5054876;28;20740;-69
2021/11/17 06:44:14;;;;;;;0.80;0.13;;;;;;;;;;5054510;28;20033;-70
2021/11/17 06:46:39;;;;;;;1.65;0.28;;;;;;;;;;5053406;28;20025;-69
2021/11/17 06:49:04;;;;;;;2.55;0.43;;;;;;;;;;5054585;28;20028;-71
2021/11/17 06:51:30;;;;;;;2.95;0.50;;;;;;;;;;5054340;28;20066;-68
2021/11/17 06:53:55;;;;;;;1.00;0.30;;;;;;;;;;5054698;28;20407;-70
2021/11/17 06:56:21;;;;;;;1.83;0.40;;;;;;;;;;5054526;28;20021;-69
2021/11/17 06:58:58;;;;;;;1.65;0.40;;;;;;;;;;5054346;28;20453;-70
2021/11/17 07:01:24;;;;;;;2.53;0.38;;;;;;;;;;5054470;28;20063;-69
2021/11/17 07:03:49;;;;;;;1.33;0.20;;;;;;;;;;5054196;28;20053;-69
2021/11/17 07:06:14;;;;;;;2.90;0.70;;;;;;;;;;5052974;28;20029;-68
2021/11/17 07:08:39;;;;;;;2.63;0.67;;;;;;;;;;5054274;28;20284;-70
2021/11/17 07:11:05;;;;;;;0.47;0.13;;;;;;;;;;5054085;28;20307;-68
2021/11/17 07:13:30;;;;;;;2.35;0.40;;;;;;;;;;5052995;28;20051;-70
2021/11/17 07:15:56;;;;;;;0.75;0.30;;;;;;;;;;5053654;28;20112;-69
2021/11/17 07:18:21;;;;;;;0.85;0.22;;;;;;;;;;5054241;28;20100;-70
2021/11/17 07:20:46;;;;;;;0.22;0.10;;;;;;;;;;5053215;28;20024;-69
2021/11/17 07:23:12;;;;;;;1.85;0.28;;;;;;;;;;5049033;28;20025;-70
2021/11/17 07:25:38;;;;;;;1.95;0.22;;;;;;;;;;5052829;28;20021;-68
2021/11/17 07:28:04;;;;;;;1.75;0.30;;;;;;;;;;5053155;28;20032;-70
2021/11/17 07:30:33;;;;;;;1.17;0.20;;;;;;;;;;5053513;28;20013;-69
2021/11/17 07:33:00;;;;;;;0.80;0.20;;;;;;;;;;5053020;28;20486;-70
2021/11/17 07:35:25;;;;;;;1.05;0.20;;;;;;;;;;5053108;28;20052;-69
2021/11/17 07:37:51;;;;;;;3.17;0.85;;;;;;;;;;5053516;28;20037;-70
2021/11/17 07:40:17;;;;;;;1.52;0.40;;;;;;;;;;5053608;28;20117;-68
2021/11/17 07:42:42;;;;;;;2.30;0.30;;;;;;;;;;5053272;28;20048;-70
2021/11/17 07:45:08;;;;;;;1.75;0.28;;;;;;;;;;5053742;28;20033;-69
2021/11/17 07:47:33;;;;;;;4.65;0.32;;;;;;;;;;5053660;28;20037;-68
2021/11/17 07:50:01;;;;;;;2.00;0.20;;;;;;;;;;5053456;28;20419;-69
2021/11/17 07:52:26;;;;;;;1.88;0.40;;;;;;;;;;5053539;28;20761;-69
2021/11/17 07:54:52;;;;;;;2.58;0.30;;;;;;;;;;5053165;28;20035;-69
2021/11/17 07:57:18;;;;;;;1.40;0.10;;;;;;;;;;5052414;28;20043;-69
2021/11/17 07:59:44;;;;;;;1.20;0.22;;;;;;;;;;5052315;28;20249;-71
2021/11/17 08:02:11;;;;;;;1.75;0.52;;;;;;;;;;5052356;28;20496;-68
2021/11/17 08:04:37;;;;;;;1.45;0.10;;;;;;;;;;5052765;28;20021;-71
2021/11/17 08:07:09;;;;;;;1.00;0.15;;;;;;;;;;5052793;28;20108;-69
2021/11/17 08:09:36;;;;;;;1.20;0.60;;;;;;;;;;5052631;28;20028;-71
2021/11/17 08:12:01;;;;;;;0.68;0.20;;;;;;;;;;5052411;28;20029;-71
2021/11/17 08:14:26;;;;;;;6.47;0.25;;;;;;;;;;5051637;28;20381;-70
2021/11/17 08:16:52;;;;;;;0.75;0.20;;;;;;;;;;5053291;28;20082;-71
2021/11/17 08:19:26;;;;;;;2.58;0.38;;;;;;;;;;5052609;28;20037;-71
2021/11/17 08:21:51;;;;;;;2.88;0.60;;;;;;;;;;5052763;28;20013;-71
2021/11/17 08:24:16;;;;;;;2.53;0.77;;;;;;;;;;5052671;28;20021;-71
2021/11/17 08:26:42;;;;;;;2.67;0.40;;;;;;;;;;5053305;28;20399;-70
2021/11/17 08:29:09;;;;;;;1.42;0.32;;;;;;;;;;5058399;28;20017;-71
2021/11/17 08:31:34;;;;;;;1.55;0.68;;;;;;;;;;5049967;28;20084;-71
2021/11/17 08:34:00;;;;;;;1.95;0.50;;;;;;;;;;5053980;28;20029;-70
2021/11/17 08:36:25;;;;;;;0.95;0.28;;;;;;;;;;5055731;28;20013;-71
2021/11/17 08:38:53;;;;;;;1.23;0.30;;;;;;;;;;5055823;28;20059;-71
2021/11/17 08:41:18;;;;;;;1.02;0.30;;;;;;;;;;5055748;28;20459;-71
2021/11/17 08:43:43;;;;;;;3.70;0.40;;;;;;;;;;5054692;28;20017;-71
2021/11/17 08:46:09;;;;;;;1.52;0.60;;;;;;;;;;5049575;28;20029;-70
2021/11/17 08:48:37;;;;;;;1.67;0.30;;;;;;;;;;5051166;28;20021;-70
2021/11/17 08:51:05;;;;;;;1.63;0.15;;;;;;;;;;5056460;28;20053;-68
2021/11/17 08:53:31;;;;;;;0.95;0.30;;;;;;;;;;5055783;28;20083;-70
2021/11/17 08:55:57;;;;;;;2.17;0.52;;;;;;;;;;5054769;28;20025;-71
2021/11/17 08:58:22;;;;;;;3.15;0.38;;;;;;;;;;5053534;28;20021;-69
2021/11/17 09:00:49;;;;;;;4.00;0.68;;;;;;;;;;5053012;28;20483;-70
2021/11/17 09:03:15;;;;;;;0.85;0.30;;;;;;;;;;5054497;28;20045;-71
2021/11/17 09:05:45;;;;;;;1.05;0.10;;;;;;;;;;5054843;28;20031;-70
2021/11/17 09:08:12;;;;;;;1.45;0.20;;;;;;;;;;5056317;28;20017;-71
2021/11/17 09:10:38;;;;;;;1.42;0.30;;;;;;;;;;5056887;28;20104;-70
2021/11/17 09:13:05;;;;;;;0.85;0.28;;;;;;;;;;5056880;28;20473;-70
2021/11/17 09:15:33;;;;;;;0.90;0.30;;;;;;;;;;5056654;28;20031;-70
2021/11/17 09:18:00;;;;;;;3.42;0.85;;;;;;;;;;5056692;28;20016;-70
2021/11/17 09:20:26;;;;;;;2.33;0.40;;;;;;;;;;5056548;28;20025;-70
2021/11/17 09:22:59;;;;;;;2.35;0.50;;;;;;;;;;5056573;28;20055;-70
2021/11/17 09:25:25;;;;;;;1.15;0.40;;;;;;;;;;5056407;28;20048;-70
2021/11/17 09:27:51;;;;;;;1.65;0.30;;;;;;;;;;5055154;28;20032;-70
2021/11/17 09:30:19;;;;;;;0.70;0.20;;;;;;;;;;5055386;28;20036;-70
2021/11/17 09:32:46;;;;;;;1.92;0.30;;;;;;;;;;5055363;28;20048;-70
2021/11/17 09:35:13;;;;;;;2.63;0.22;;;;;;;;;;5055663;28;20071;-69
2021/11/17 09:37:39;;;;;;;2.85;0.60;;;;;;;;;;5056202;28;20480;-69
2021/11/17 09:40:06;;;;;;;1.02;0.60;;;;;;;;;;5055515;28;20021;-69
2021/11/17 09:42:33;;;;;;;2.15;0.65;;;;;;;;;;5055819;28;20032;-70
2021/11/17 09:44:59;;;;;;;1.33;0.32;;;;;;;;;;5055194;28;20024;-69
2021/11/17 09:47:26;;;;;;;1.38;0.35;;;;;;;;;;5054591;28;20017;-69
2021/11/17 09:49:56;;;;;;;0.80;0.40;;;;;;;;;;5055297;28;20107;-69
2021/11/17 09:52:30;;;;;;;2.35;0.28;;;;;;;;;;5054590;28;20028;-69
2021/11/17 09:55:07;;;;;;;1.17;0.38;;;;;;;;;;5055123;28;20009;-70
2021/11/17 09:57:35;;;;;;;1.38;0.20;;;;;;;;;;5066987;28;20024;-69
2021/11/17 10:00:09;;;;;;;1.67;0.50;;;;;;;;;;5062003;28;20044;-70
2021/11/17 10:02:43;;;;;;;2.78;0.43;;;;;;;;;;5053685;28;20523;-69
2021/11/17 10:05:24;;;;;;;2.55;0.50;;;;;;;;;;5055170;28;20020;-71
2021/11/17 10:13:43;;;;;;;1.98;0.40;;;;;;;;;;5055775;28;20036;-70
2021/11/17 10:16:08;;;;;;;1.00;0.20;;;;;;;;;;5055468;28;20028;-70
2021/11/17 10:18:36;;;;;;;1.77;0.73;;;;;;;;;;5055407;28;20021;-68
2021/11/17 10:21:09;;;;;;;1.33;0.30;;;;;;;;;;5055450;28;20460;-71
2021/11/17 10:23:44;;;;;;;1.73;0.20;;;;;;;;;;5052618;28;20104;-69
2021/11/17 10:26:12;;;;;;;1.90;0.20;;;;;;;;;;5054440;28;20021;-70
2021/11/17 10:28:40;;;;;;;2.22;0.50;;;;;;;;;;5054096;28;20461;-69
2021/11/17 10:31:11;;;;;;;1.63;0.30;;;;;;;;;;5053842;28;20044;-70
2021/11/17 10:33:53;;;;;;;3.83;0.50;;;;;;;;;;5054453;28;20460;-69
2021/11/17 10:36:21;;;;;;;1.13;0.60;;;;;;;;;;5055095;28;20112;-68
2021/11/17 10:38:52;;;;;;;2.15;0.45;;;;;;;;;;5059555;28;20021;-69
2021/11/17 10:41:22;;;;;;;2.17;0.90;;;;;;;;;;5054843;28;20025;-68
2021/11/17 10:43:53;;;;;;;1.80;0.30;;;;;;;;;;5054587;28;20021;-69
2021/11/17 10:46:20;;;;;;;0.40;0.20;;;;;;;;;;5054479;28;20028;-71
2021/11/17 10:48:50;;;;;;;3.47;0.45;;;;;;;;;;5044566;28;20524;-69
2021/11/17 10:51:21;;;;;;;1.63;0.35;;;;;;;;;;5050533;28;20033;-69
2021/11/17 10:53:48;;;;;;;2.88;0.30;;;;;;;;;;5054067;28;20108;-70
2021/11/17 10:56:14;;;;;;;2.72;0.93;;;;;;;;;;5054397;28;20667;-68
2021/11/17 10:58:41;;;;;;;1.40;0.40;;;;;;;;;;5054432;28;20043;-69
2021/11/17 11:01:14;;;;;;;0.20;0.10;;;;;;;;;;5054384;28;20112;-70
2021/11/17 11:03:45;;;;;;;2.97;0.50;;;;;;;;;;5054403;28;20450;-69
2021/11/17 11:06:22;;;;;;;2.67;0.45;;;;;;;;;;5054286;28;20017;-69
2021/11/17 11:08:50;;;;;;;2.50;0.77;;;;;;;;;;5054144;28;20109;-68
2021/11/17 11:11:17;;;;;;;1.02;0.20;;;;;;;;;;5054318;28;20024;-69
2021/11/17 11:13:58;;;;;;;0.80;0.15;;;;;;;;;;5053193;28;20371;-69
2021/11/17 11:16:25;;;;;;;1.95;0.63;;;;;;;;;;5054498;28;20048;-68
2021/11/17 11:18:54;;;;;;;1.05;0.30;;;;;;;;;;5054477;28;20039;-70
2021/11/17 11:21:42;;;;;;;2.15;0.30;;;;;;;;;;5054353;28;20095;-69
2021/11/17 11:24:28;;;;;;;0.68;0.20;;;;;;;;;;5053937;28;20059;-69
2021/11/17 11:26:59;;;;;;;1.30;0.35;;;;;;;;;;5054510;28;20482;-68
2021/11/17 11:29:33;;;;;;;2.25;0.40;;;;;;;;;;5054583;28;20056;-69
2021/11/17 11:32:02;;;;;;;1.98;0.52;;;;;;;;;;5054264;28;20052;-70
2021/11/17 11:34:31;;;;;;;1.63;0.40;;;;;;;;;;5052683;28;20037;-68
2021/11/17 11:36:57;;;;;;;1.10;0.30;;;;;;;;;;5053871;28;20484;-69
2021/11/17 11:39:26;;;;;;;3.33;0.50;;;;;;;;;;5052781;28;20055;-69
2021/11/17 11:42:10;;;;;;;0.90;0.22;;;;;;;;;;5053853;28;20021;-67
2021/11/17 11:44:38;;;;;;;0.68;0.25;;;;;;;;;;5054094;28;20063;-69
2021/11/17 11:47:04;;;;;;;2.00;0.30;;;;;;;;;;5046325;28;20021;-69
2021/11/17 11:49:44;;;;;;;1.65;0.20;;;;;;;;;;5053676;28;20033;-69
2021/11/17 11:52:19;;;;;;;0.77;0.40;;;;;;;;;;5052699;28;20078;-68
2021/11/17 11:54:44;;;;;;;;;;;;;;;;;;5053941;28;20031;-68
2021/11/17 11:57:20;;;;;;;0.83;0.23;;;;;;;;;;5052518;28;19908;-69
2021/11/17 11:59:45;;;;;;;1.65;0.30;;;;;;;;;;5033669;28;20359;-69
2021/11/17 12:02:19;;;;;;;0.93;0.30;;;;;;;;;;5044680;28;20128;-69
2021/11/17 12:04:48;;;;;;;0.90;0.20;;;;;;;;;;5053692;28;20075;-70
2021/11/17 12:07:20;;;;;;;1.75;0.80;;;;;;;;;;5053352;28;20056;-70
2021/11/17 12:10:11;;;;;;;1.45;0.25;;;;;;;;;;5053177;28;20025;-69
2021/11/17 12:12:40;;;;;;;1.40;0.40;;;;;;;;;;5050478;28;20041;-69
2021/11/17 12:15:17;;;;;;;1.45;0.20;;;;;;;;;;5053535;28;20052;-69
2021/11/17 12:17:44;;;;;;;2.22;0.55;;;;;;;;;;5053585;28;20028;-70
2021/11/17 12:20:27;;;;;;;0.32;0.10;;;;;;;;;;5053487;28;20017;-69
2021/11/17 12:22:55;;;;;;;1.10;0.43;;;;;;;;;;5053626;28;20439;-68
2021/11/17 12:25:29;;;;;;;2.45;0.35;;;;;;;;;;5053378;28;20032;-69
2021/11/17 12:28:08;;;;;;;0.77;0.20;;;;;;;;;;5053715;28;20041;-71
2021/11/17 12:30:37;;;;;;;1.30;0.30;;;;;;;;;;5053485;28;20472;-68
2021/11/17 12:33:16;;;;;;;1.42;0.25;;;;;;;;;;5052107;28;20448;-69
2021/11/17 12:35:43;;;;;;;2.03;0.20;;;;;;;;;;5052958;28;20048;-69
2021/11/17 12:38:14;;;;;;;1.60;0.32;;;;;;;;;;5050358;28;20021;-70
2021/11/17 12:40:48;;;;;;;1.45;0.68;;;;;;;;;;5053340;28;20009;-69
2021/11/17 12:43:34;;;;;;;1.63;0.25;;;;;;;;;;5052972;28;20042;-69
2021/11/17 12:46:12;;;;;;;2.05;0.45;;;;;;;;;;5052840;28;20044;-68
2021/11/17 12:48:54;;;;;;;2.17;0.30;;;;;;;;;;5053237;28;20391;-70
2021/11/17 12:51:30;;;;;;;1.85;0.40;;;;;;;;;;5052982;28;20064;-70
2021/11/17 12:54:01;;;;;;;4.22;0.65;;;;;;;;;;5052435;28;20025;-68
2021/11/17 12:56:31;;;;;;;1.85;0.30;;;;;;;;;;5053288;28;20052;-70
2021/11/17 12:59:04;;;;;;;1.58;0.20;;;;;;;;;;5051661;28;20059;-70
2021/11/17 13:01:31;;;;;;;1.33;0.10;;;;;;;;;;5053218;28;20016;-70
2021/11/17 13:03:59;;;;;;;1.48;0.55;;;;;;;;;;5053076;28;20045;-69
2021/11/17 13:06:38;;;;;;;1.45;0.43;;;;;;;;;;5053216;28;20017;-70
2021/11/17 13:09:43;;;;;;;1.75;0.38;;;;;;;;;;5052949;28;20048;-70
2021/11/17 13:12:17;;;;;;;1.60;0.20;;;;;;;;;;5023233;28;20022;-70
2021/11/17 13:14:42;;;;;;;2.15;0.43;;;;;;;;;;5011425;28;20046;-69
2021/11/17 13:17:15;;;;;;;2.20;0.22;;;;;;;;;;5011668;28;20038;-68
2021/11/17 13:19:43;;;;;;;1.48;0.20;;;;;;;;;;5016003;28;20031;-70
2021/11/17 13:22:19;;;;;;;2.55;0.20;;;;;;;;;;5029789;28;20036;-70
2021/11/17 13:24:45;;;;;;;2.63;0.40;;;;;;;;;;5033120;28;20104;-69
2021/11/17 13:27:12;;;;;;;1.48;0.32;;;;;;;;;;5029727;28;20030;-69
2021/11/17 13:29:51;;;;;;;1.38;0.13;;;;;;;;;;5004707;28;20061;-70
2021/11/17 13:32:19;;;;;;;1.17;0.40;;;;;;;;;;5014768;28;20084;-69
2021/11/17 13:34:47;;;;;;;1.17;0.30;;;;;;;;;;5014782;28;20425;-69
2021/11/17 13:37:22;;;;;;;3.67;0.60;;;;;;;;;;5048249;28;20029;-70
2021/11/17 13:39:54;;;;;;;2.38;0.30;;;;;;;;;;5054299;28;20029;-72
2021/11/17 13:42:20;;;;;;;2.33;0.65;;;;;;;;;;5059994;28;20032;-69
2021/11/17 13:44:45;;;;;;;1.20;0.50;;;;;;;;;;5065705;28;20016;-70
2021/11/17 13:47:22;;;;;;;1.38;0.28;;;;;;;;;;5055988;28;20555;-70
2021/11/17 13:49:49;;;;;;;1.98;0.47;;;;;;;;;;5055919;28;20021;-68
2021/11/17 13:52:16;;;;;;;1.65;0.20;;;;;;;;;;5056141;28;20017;-70
2021/11/17 13:54:41;;;;;;;1.05;0.20;;;;;;;;;;5055920;28;20032;-70
2021/11/17 13:57:08;;;;;;;2.55;0.40;;;;;;;;;;5056048;28;20021;-69
2021/11/17 13:59:34;;;;;;;1.10;0.20;;;;;;;;;;5056182;28;20020;-69
2021/11/17 14:01:59;;;;;;;2.92;0.80;;;;;;;;;;5055533;28;20033;-70
2021/11/17 14:04:25;;;;;;;0.68;0.20;;;;;;;;;;5055937;28;20456;-69
2021/11/17 14:06:51;;;;;;;2.17;0.50;;;;;;;;;;5056053;28;20021;-70
2021/11/17 14:09:19;;;;;;;1.83;0.20;;;;;;;;;;5055627;28;20146;-70
2021/11/17 14:11:46;;;;;;;1.98;0.20;;;;;;;;;;5055970;28;20079;-69
2021/11/17 14:14:16;;;;;;;0.85;0.17;;;;;;;;;;5055883;28;20465;-71
2021/11/17 14:16:41;;;;;;;1.98;0.38;;;;;;;;;;5055529;28;20066;-70
2021/11/17 14:19:09;;;;;;;2.05;0.30;;;;;;;;;;5055403;28;20017;-69
2021/11/17 14:21:43;;;;;;;1.80;0.73;;;;;;;;;;5055812;28;20055;-70
2021/11/17 14:24:10;;;;;;;1.08;0.45;;;;;;;;;;5055338;28;20025;-70
2021/11/17 14:26:45;;;;;;;2.45;0.38;;;;;;;;;;5055494;28;20033;-69
2021/11/17 14:29:12;;;;;;;1.27;0.30;;;;;;;;;;5055358;28;20028;-70
2021/11/17 14:31:43;;;;;;;0.52;0.10;;;;;;;;;;5054759;28;20053;-73
2021/11/17 14:34:09;;;;;;;1.38;0.35;;;;;;;;;;5055372;28;20021;-66
2021/11/17 14:36:38;;;;;;;1.17;0.40;;;;;;;;;;5055547;28;20071;-67
2021/11/17 14:39:05;;;;;;;1.35;0.22;;;;;;;;;;5055378;28;20021;-69
2021/11/17 14:41:34;;;;;;;0.30;0.10;;;;;;;;;;5055179;28;20017;-70
2021/11/17 14:44:00;;;;;;;1.80;0.17;;;;;;;;;;5054979;28;20017;-67
2021/11/17 14:46:26;;;;;;;1.13;0.10;;;;;;;;;;5054343;28;20121;-69
2021/11/17 14:48:51;;;;;;;1.50;0.20;;;;;;;;;;5054524;28;20548;-69
2021/11/17 14:51:16;;;;;;;0.88;0.10;;;;;;;;;;5054828;28;20108;-69
2021/11/17 14:53:44;;;;;;;2.50;0.30;;;;;;;;;;5054642;28;20063;-70
2021/11/17 14:56:10;;;;;;;0.93;0.20;;;;;;;;;;5053773;28;20028;-69
2021/11/17 14:58:35;;;;;;;0.50;0.17;;;;;;;;;;5054633;28;20021;-69
2021/11/17 15:01:02;;;;;;;0.22;0.08;;;;;;;;;;5052867;28;20020;-70
2021/11/17 15:03:27;;;;;;;1.40;0.20;;;;;;;;;;5054138;28;20143;-69
2021/11/17 15:05:52;;;;;;;0.57;0.20;;;;;;;;;;5054253;28;20123;-70
2021/11/17 15:08:18;;;;;;;2.55;0.52;;;;;;;;;;5054080;28;20025;-71
2021/11/17 15:10:44;;;;;;;2.47;0.45;;;;;;;;;;5054117;28;20040;-69
2021/11/17 15:13:09;;;;;;;1.50;0.47;;;;;;;;;;5052907;28;20021;-70
2021/11/17 15:15:37;;;;;;;1.65;0.30;;;;;;;;;;5053934;28;20020;-70
2021/11/17 15:18:02;;;;;;;1.63;0.15;;;;;;;;;;5053925;28;20107;-70
2021/11/17 15:20:28;;;;;;;0.47;0.10;;;;;;;;;;5054197;28;20092;-70
2021/11/17 15:22:53;;;;;;;0.45;0.25;;;;;;;;;;5052741;28;20036;-69
2021/11/17 15:25:24;;;;;;;1.75;0.40;;;;;;;;;;5054039;28;20017;-70
2021/11/17 15:27:52;;;;;;;1.13;0.10;;;;;;;;;;5053695;28;20027;-70
2021/11/17 15:30:20;;;;;;;1.52;0.20;;;;;;;;;;5053448;28;20024;-69
2021/11/17 15:32:45;;;;;;;1.67;0.28;;;;;;;;;;5054061;28;20071;-70
2021/11/17 15:35:12;;;;;;;1.98;0.65;;;;;;;;;;5053612;28;20024;-70
2021/11/17 15:37:38;;;;;;;3.33;0.28;;;;;;;;;;5052426;28;20028;-69
2021/11/17 15:40:05;;;;;;;1.38;0.17;;;;;;;;;;5053200;28;20025;-69
2021/11/17 15:42:30;;;;;;;2.38;0.22;;;;;;;;;;5053767;28;20048;-70
2021/11/17 15:44:55;;;;;;;1.08;0.35;;;;;;;;;;5052416;28;20499;-69
2021/11/17 15:47:25;;;;;;;1.02;0.13;;;;;;;;;;5053666;28;20021;-69
2021/11/17 15:49:52;;;;;;;1.42;0.63;;;;;;;;;;5053524;28;20016;-70
2021/11/17 15:52:17;;;;;;;1.05;0.20;;;;;;;;;;5053359;28;20028;-69
2021/11/17 15:54:42;;;;;;;1.80;0.40;;;;;;;;;;5053659;28;20020;-69
2021/11/17 15:57:07;;;;;;;0.53;0.10;;;;;;;;;;5053332;28;20403;-70
2021/11/17 15:59:33;;;;;;;1.08;0.28;;;;;;;;;;5053322;28;20328;-70
2021/11/17 16:01:58;;;;;;;1.35;0.30;;;;;;;;;;5051782;28;20033;-70
2021/11/17 16:04:25;;;;;;;0.27;0.10;;;;;;;;;;5053406;28;20479;-70
2021/11/17 16:06:53;;;;;;;1.77;0.52;;;;;;;;;;5053128;28;20721;-69
2021/11/17 16:09:19;;;;;;;4.88;0.40;;;;;;;;;;5053209;28;20048;-70
2021/11/17 16:11:53;;;;;;;2.60;0.20;;;;;;;;;;5053183;28;20055;-71
2021/11/17 16:14:25;;;;;;;0.20;0.00;;;;;;;;;;5053228;28;20453;-69
2021/11/17 16:16:50;;;;;;;0.50;0.10;;;;;;;;;;5053273;28;20469;-69
2021/11/17 16:19:15;;;;;;;0.65;0.25;;;;;;;;;;5053107;28;20071;-71
2021/11/17 16:21:42;;;;;;;0.55;0.20;;;;;;;;;;5053364;28;20044;-70
2021/11/17 16:26:52;;;;;;;2.13;0.25;;;;;;;;;;5052802;28;20419;-69
2021/11/17 16:29:18;;;;;;;1.20;0.10;;;;;;;;;;5052822;28;20051;-70
2021/11/17 16:31:43;;;;;;;1.17;0.20;;;;;;;;;;5053129;28;20456;-69
2021/11/17 16:34:09;;;;;;;1.67;0.30;;;;;;;;;;5052651;28;20572;-70
2021/11/17 16:36:37;;;;;;;1.27;0.43;;;;;;;;;;5053067;28;20052;-70
2021/11/17 16:39:03;;;;;;;1.27;0.25;;;;;;;;;;5051672;28;20104;-69
2021/11/17 16:41:29;;;;;;;0.17;0.10;;;;;;;;;;5052858;28;20017;-69
2021/11/17 16:43:54;;;;;;;0.53;0.20;;;;;;;;;;5052730;28;20346;-70
2021/11/17 16:46:20;;;;;;;1.65;0.30;;;;;;;;;;5052706;28;20253;-69
2021/11/17 16:48:46;;;;;;;0.28;0.10;;;;;;;;;;5052946;28;20021;-69
2021/11/17 16:51:15;;;;;;;0.60;0.15;;;;;;;;;;5051536;28;20575;-70
2021/11/17 16:53:46;;;;;;;1.75;0.20;;;;;;;;;;5051248;28;20070;-69
2021/11/17 16:56:12;;;;;;;0.82;0.13;;;;;;;;;;5055327;28;20021;-68
2021/11/17 16:58:37;;;;;;;0.80;0.32;;;;;;;;;;5056846;28;20471;-69
2021/11/17 17:01:11;;;;;;;0.47;0.20;;;;;;;;;;5056624;28;20024;-70
2021/11/17 17:03:37;;;;;;;0.47;0.10;;;;;;;;;;5056406;28;20160;-69
2021/11/17 17:06:05;;;;;;;1.50;0.22;;;;;;;;;;5056554;28;20036;-70
2021/11/17 17:08:32;;;;;;;1.42;0.20;;;;;;;;;;5056637;28;20025;-71
2021/11/17 17:10:58;;;;;;;0.77;0.15;;;;;;;;;;5056325;28;20029;-69
2021/11/17 17:13:23;;;;;;;0.75;0.28;;;;;;;;;;5056612;28;20087;-70
2021/11/17 17:15:49;;;;;;;0.52;0.10;;;;;;;;;;5056098;28;20460;-70
2021/11/17 17:18:16;;;;;;;0.93;0.20;;;;;;;;;;5056490;28;20017;-69
2021/11/17 17:20:46;;;;;;;1.55;0.45;;;;;;;;;;5056294;28;20021;-70
2021/11/17 17:23:12;;;;;;;0.73;0.10;;;;;;;;;;5055931;28;20029;-71
2021/11/17 17:25:41;;;;;;;0.68;0.30;;;;;;;;;;5056306;28;20108;-69
2021/11/17 17:28:09;;;;;;;1.08;0.20;;;;;;;;;;5056325;28;20356;-69
2021/11/17 17:30:34;;;;;;;1.20;0.15;;;;;;;;;;5056439;28;20013;-70
2021/11/17 17:33:01;;;;;;;1.42;0.52;;;;;;;;;;5056146;28;20067;-70
2021/11/17 17:35:26;;;;;;;1.05;0.60;;;;;;;;;;5056254;28;20074;-69
2021/11/17 17:37:52;;;;;;;1.08;0.30;;;;;;;;;;5056118;28;20452;-70